sensor_id;sensor_type;location;lat;lon;timestamp;temperature;humidity
7972;DHT22;4031;49.758;6.120;2022-07-17T00:00:24;12.00;99.90
7972;DHT22;4031;49.758;6.120;2022-07-17T00:02:50;11.90;99.90
7972;DHT22;4031;49.758;6.120;2022-07-17T00:05:17;11.80;99.90
7972;DHT22;4031;49.758;6.120;2022-07-17T00:07:43;11.80;99.90
7972;DHT22;4031;49.758;6.120;2022-07-17T00:10:09;11.80;99.90
7972;DHT22;4031;49.758;6.120;2022-07-17T00:12:35;11.70;99.90
7972;DHT22;4031;49.758;6.120;2022-07-17T00:15:01;11.60;99.90
7972;DHT22;4031;49.758;6.120;2022-07-17T00:17:26;11.60;99.90
7972;DHT22;4031;49.758;6.120;2022-07-17T00:19:52;11.50;99.90
7972;DHT22;4031;49.758;6.120;2022-07-17T00:22:18;11.50;99.90
7972;DHT22;4031;49.758;6.120;2022-07-17T00:24:46;11.40;99.90
7972;DHT22;4031;49.758;6.120;2022-07-17T00:27:11;11.40;99.90
7972;DHT22;4031;49.758;6.120;2022-07-17T00:29:37;11.40;99.90
7972;DHT22;4031;49.758;6.120;2022-07-17T00:32:03;11.40;99.90
7972;DHT22;4031;49.758;6.120;2022-07-17T00:34:29;11.40;99.90
7972;DHT22;4031;49.758;6.120;2022-07-17T00:36:55;11.30;99.90
7972;DHT22;4031;49.758;6.120;2022-07-17T00:39:20;11.30;99.90
7972;DHT22;4031;49.758;6.120;2022-07-17T00:41:46;11.20;99.90
7972;DHT22;4031;49.758;6.120;2022-07-17T00:44:12;11.20;99.90
7972;DHT22;4031;49.758;6.120;2022-07-17T00:46:39;11.10;99.90
7972;DHT22;4031;49.758;6.120;2022-07-17T00:49:07;11.10;99.90
7972;DHT22;4031;49.758;6.120;2022-07-17T00:51:34;11.10;99.90
7972;DHT22;4031;49.758;6.120;2022-07-17T00:54:00;11.10;99.90
7972;DHT22;4031;49.758;6.120;2022-07-17T00:56:28;11.00;99.90
7972;DHT22;4031;49.758;6.120;2022-07-17T00:58:54;10.90;99.90
7972;DHT22;4031;49.758;6.120;2022-07-17T01:01:21;10.80;99.90
7972;DHT22;4031;49.758;6.120;2022-07-17T01:03:47;10.80;99.90
7972;DHT22;4031;49.758;6.120;2022-07-17T01:06:13;10.80;99.90
7972;DHT22;4031;49.758;6.120;2022-07-17T01:08:39;10.70;99.90
7972;DHT22;4031;49.758;6.120;2022-07-17T01:11:05;10.70;99.90
7972;DHT22;4031;49.758;6.120;2022-07-17T01:13:33;10.80;99.90
7972;DHT22;4031;49.758;6.120;2022-07-17T01:15:59;10.80;99.90
7972;DHT22;4031;49.758;6.120;2022-07-17T01:18:25;10.80;99.90
7972;DHT22;4031;49.758;6.120;2022-07-17T01:20:51;10.90;99.90
7972;DHT22;4031;49.758;6.120;2022-07-17T01:23:18;10.80;99.90
7972;DHT22;4031;49.758;6.120;2022-07-17T01:25:45;10.70;99.90
7972;DHT22;4031;49.758;6.120;2022-07-17T01:28:12;10.70;99.90
7972;DHT22;4031;49.758;6.120;2022-07-17T01:30:48;10.60;99.90
7972;DHT22;4031;49.758;6.120;2022-07-17T01:33:15;10.50;99.90
7972;DHT22;4031;49.758;6.120;2022-07-17T01:35:41;10.50;99.90
7972;DHT22;4031;49.758;6.120;2022-07-17T01:38:07;10.40;99.90
7972;DHT22;4031;49.758;6.120;2022-07-17T01:40:33;10.40;99.90
7972;DHT22;4031;49.758;6.120;2022-07-17T01:42:59;10.40;99.90
7972;DHT22;4031;49.758;6.120;2022-07-17T01:45:25;10.30;99.90
7972;DHT22;4031;49.758;6.120;2022-07-17T01:47:51;10.20;99.90
7972;DHT22;4031;49.758;6.120;2022-07-17T01:50:17;10.30;99.90
7972;DHT22;4031;49.758;6.120;2022-07-17T01:52:44;10.10;99.90
7972;DHT22;4031;49.758;6.120;2022-07-17T01:55:13;10.00;99.90
7972;DHT22;4031;49.758;6.120;2022-07-17T01:57:41;9.90;99.90
7972;DHT22;4031;49.758;6.120;2022-07-17T02:00:10;9.90;99.90
7972;DHT22;4031;49.758;6.120;2022-07-17T02:02:40;9.90;99.90
7972;DHT22;4031;49.758;6.120;2022-07-17T02:05:06;9.80;99.90
7972;DHT22;4031;49.758;6.120;2022-07-17T02:07:33;9.80;99.90
7972;DHT22;4031;49.758;6.120;2022-07-17T02:10:00;9.80;99.90
7972;DHT22;4031;49.758;6.120;2022-07-17T02:12:26;9.70;99.90
7972;DHT22;4031;49.758;6.120;2022-07-17T02:14:51;9.70;99.90
7972;DHT22;4031;49.758;6.120;2022-07-17T02:17:17;9.70;99.90
7972;DHT22;4031;49.758;6.120;2022-07-17T02:19:43;9.60;99.90
7972;DHT22;4031;49.758;6.120;2022-07-17T02:22:08;9.60;99.90
7972;DHT22;4031;49.758;6.120;2022-07-17T02:24:34;9.60;99.90
7972;DHT22;4031;49.758;6.120;2022-07-17T02:27:00;9.60;99.90
7972;DHT22;4031;49.758;6.120;2022-07-17T02:29:26;9.50;99.90
7972;DHT22;4031;49.758;6.120;2022-07-17T02:31:51;9.50;99.90
7972;DHT22;4031;49.758;6.120;2022-07-17T02:34:17;9.40;99.90
7972;DHT22;4031;49.758;6.120;2022-07-17T02:36:43;9.40;99.90
7972;DHT22;4031;49.758;6.120;2022-07-17T02:39:08;9.40;99.90
7972;DHT22;4031;49.758;6.120;2022-07-17T02:41:34;9.40;99.90
7972;DHT22;4031;49.758;6.120;2022-07-17T02:44:00;9.30;99.90
7972;DHT22;4031;49.758;6.120;2022-07-17T02:46:26;9.30;99.90
7972;DHT22;4031;49.758;6.120;2022-07-17T02:48:51;9.30;99.90
7972;DHT22;4031;49.758;6.120;2022-07-17T02:51:17;9.30;99.90
7972;DHT22;4031;49.758;6.120;2022-07-17T02:53:43;9.30;99.90
7972;DHT22;4031;49.758;6.120;2022-07-17T02:56:09;9.20;99.90
7972;DHT22;4031;49.758;6.120;2022-07-17T02:58:34;9.20;99.90
7972;DHT22;4031;49.758;6.120;2022-07-17T03:01:00;9.20;99.90
7972;DHT22;4031;49.758;6.120;2022-07-17T03:03:26;9.20;99.90
7972;DHT22;4031;49.758;6.120;2022-07-17T03:05:52;9.10;99.90
7972;DHT22;4031;49.758;6.120;2022-07-17T03:08:18;9.10;99.90
7972;DHT22;4031;49.758;6.120;2022-07-17T03:10:43;9.00;99.90
7972;DHT22;4031;49.758;6.120;2022-07-17T03:13:09;9.00;99.90
7972;DHT22;4031;49.758;6.120;2022-07-17T03:15:35;9.00;99.90
7972;DHT22;4031;49.758;6.120;2022-07-17T03:18:00;9.00;99.90
7972;DHT22;4031;49.758;6.120;2022-07-17T03:20:26;8.90;99.90
7972;DHT22;4031;49.758;6.120;2022-07-17T03:22:52;8.90;99.90
7972;DHT22;4031;49.758;6.120;2022-07-17T03:25:18;8.90;99.90
7972;DHT22;4031;49.758;6.120;2022-07-17T03:27:44;8.90;99.90
7972;DHT22;4031;49.758;6.120;2022-07-17T03:30:09;8.80;99.90
7972;DHT22;4031;49.758;6.120;2022-07-17T03:32:35;8.80;99.90
7972;DHT22;4031;49.758;6.120;2022-07-17T03:35:01;8.80;99.90
7972;DHT22;4031;49.758;6.120;2022-07-17T03:37:27;8.80;99.90
7972;DHT22;4031;49.758;6.120;2022-07-17T03:39:53;8.80;99.90
7972;DHT22;4031;49.758;6.120;2022-07-17T03:42:20;8.70;99.90
7972;DHT22;4031;49.758;6.120;2022-07-17T03:44:45;8.70;99.90
7972;DHT22;4031;49.758;6.120;2022-07-17T03:47:11;8.70;99.90
7972;DHT22;4031;49.758;6.120;2022-07-17T03:49:37;8.80;99.90
7972;DHT22;4031;49.758;6.120;2022-07-17T03:52:03;8.70;99.90
7972;DHT22;4031;49.758;6.120;2022-07-17T03:54:29;8.70;99.90
7972;DHT22;4031;49.758;6.120;2022-07-17T03:56:55;8.60;99.90
7972;DHT22;4031;49.758;6.120;2022-07-17T03:59:21;8.60;99.90
7972;DHT22;4031;49.758;6.120;2022-07-17T04:01:46;8.60;99.90
7972;DHT22;4031;49.758;6.120;2022-07-17T04:04:13;8.60;99.90
7972;DHT22;4031;49.758;6.120;2022-07-17T04:06:39;8.60;99.90
7972;DHT22;4031;49.758;6.120;2022-07-17T04:09:05;8.50;99.90
7972;DHT22;4031;49.758;6.120;2022-07-17T04:11:31;8.60;99.90
7972;DHT22;4031;49.758;6.120;2022-07-17T04:13:56;8.60;99.90
7972;DHT22;4031;49.758;6.120;2022-07-17T04:16:22;8.60;99.90
7972;DHT22;4031;49.758;6.120;2022-07-17T04:18:48;8.50;99.90
7972;DHT22;4031;49.758;6.120;2022-07-17T04:21:14;8.50;99.90
7972;DHT22;4031;49.758;6.120;2022-07-17T04:23:39;8.60;99.90
7972;DHT22;4031;49.758;6.120;2022-07-17T04:26:06;8.50;99.90
7972;DHT22;4031;49.758;6.120;2022-07-17T04:28:33;8.60;99.90
7972;DHT22;4031;49.758;6.120;2022-07-17T04:30:59;8.70;99.90
7972;DHT22;4031;49.758;6.120;2022-07-17T04:33:25;8.70;99.90
7972;DHT22;4031;49.758;6.120;2022-07-17T04:35:51;8.70;99.90
7972;DHT22;4031;49.758;6.120;2022-07-17T04:38:17;8.80;99.90
7972;DHT22;4031;49.758;6.120;2022-07-17T04:40:42;8.80;99.90
7972;DHT22;4031;49.758;6.120;2022-07-17T04:43:08;8.90;99.90
7972;DHT22;4031;49.758;6.120;2022-07-17T04:45:34;8.90;99.90
7972;DHT22;4031;49.758;6.120;2022-07-17T04:48:00;8.90;99.90
7972;DHT22;4031;49.758;6.120;2022-07-17T04:50:27;8.90;99.90
7972;DHT22;4031;49.758;6.120;2022-07-17T04:52:52;8.90;99.90
7972;DHT22;4031;49.758;6.120;2022-07-17T04:55:18;9.00;99.90
7972;DHT22;4031;49.758;6.120;2022-07-17T04:57:44;9.00;99.90
7972;DHT22;4031;49.758;6.120;2022-07-17T05:00:11;9.10;99.90
7972;DHT22;4031;49.758;6.120;2022-07-17T05:02:37;9.10;99.90
7972;DHT22;4031;49.758;6.120;2022-07-17T05:05:03;9.20;99.90
7972;DHT22;4031;49.758;6.120;2022-07-17T05:07:30;9.30;99.90
7972;DHT22;4031;49.758;6.120;2022-07-17T05:09:55;9.40;99.90
7972;DHT22;4031;49.758;6.120;2022-07-17T05:12:21;9.50;99.90
7972;DHT22;4031;49.758;6.120;2022-07-17T05:14:47;9.60;99.90
7972;DHT22;4031;49.758;6.120;2022-07-17T05:17:13;9.70;99.90
7972;DHT22;4031;49.758;6.120;2022-07-17T05:19:39;9.80;99.90
7972;DHT22;4031;49.758;6.120;2022-07-17T05:22:05;9.80;99.90
7972;DHT22;4031;49.758;6.120;2022-07-17T05:24:31;9.90;99.90
7972;DHT22;4031;49.758;6.120;2022-07-17T05:26:59;10.00;99.90
7972;DHT22;4031;49.758;6.120;2022-07-17T05:29:26;10.10;99.90
7972;DHT22;4031;49.758;6.120;2022-07-17T05:31:51;10.20;99.90
7972;DHT22;4031;49.758;6.120;2022-07-17T05:34:17;10.40;99.90
7972;DHT22;4031;49.758;6.120;2022-07-17T05:36:43;10.40;99.90
7972;DHT22;4031;49.758;6.120;2022-07-17T05:39:09;10.50;99.90
7972;DHT22;4031;49.758;6.120;2022-07-17T05:41:36;10.60;99.90
7972;DHT22;4031;49.758;6.120;2022-07-17T05:44:02;10.70;99.90
7972;DHT22;4031;49.758;6.120;2022-07-17T05:46:28;10.80;99.90
7972;DHT22;4031;49.758;6.120;2022-07-17T05:48:54;10.90;99.90
7972;DHT22;4031;49.758;6.120;2022-07-17T05:51:19;11.00;99.90
7972;DHT22;4031;49.758;6.120;2022-07-17T05:53:45;11.10;99.90
7972;DHT22;4031;49.758;6.120;2022-07-17T05:56:11;11.20;99.90
7972;DHT22;4031;49.758;6.120;2022-07-17T05:58:37;11.40;99.90
7972;DHT22;4031;49.758;6.120;2022-07-17T06:01:02;11.60;99.90
7972;DHT22;4031;49.758;6.120;2022-07-17T06:03:28;11.80;99.90
7972;DHT22;4031;49.758;6.120;2022-07-17T06:05:54;12.10;99.90
7972;DHT22;4031;49.758;6.120;2022-07-17T06:08:21;12.40;99.90
7972;DHT22;4031;49.758;6.120;2022-07-17T06:10:47;12.70;99.90
7972;DHT22;4031;49.758;6.120;2022-07-17T06:13:13;13.00;99.90
7972;DHT22;4031;49.758;6.120;2022-07-17T06:15:39;13.30;99.90
7972;DHT22;4031;49.758;6.120;2022-07-17T06:18:04;13.60;99.90
7972;DHT22;4031;49.758;6.120;2022-07-17T06:20:31;14.00;99.90
7972;DHT22;4031;49.758;6.120;2022-07-17T06:22:57;14.40;99.90
7972;DHT22;4031;49.758;6.120;2022-07-17T06:25:23;14.90;99.90
7972;DHT22;4031;49.758;6.120;2022-07-17T06:27:49;15.60;99.90
7972;DHT22;4031;49.758;6.120;2022-07-17T06:30:15;16.40;99.90
7972;DHT22;4031;49.758;6.120;2022-07-17T06:32:42;17.30;99.90
7972;DHT22;4031;49.758;6.120;2022-07-17T06:35:08;18.50;99.90
7972;DHT22;4031;49.758;6.120;2022-07-17T06:37:34;19.60;99.90
7972;DHT22;4031;49.758;6.120;2022-07-17T06:40:00;20.80;99.90
7972;DHT22;4031;49.758;6.120;2022-07-17T06:42:26;22.00;99.90
7972;DHT22;4031;49.758;6.120;2022-07-17T06:44:52;23.10;99.90
7972;DHT22;4031;49.758;6.120;2022-07-17T06:47:18;24.10;99.90
7972;DHT22;4031;49.758;6.120;2022-07-17T06:49:44;25.10;99.90
7972;DHT22;4031;49.758;6.120;2022-07-17T06:52:10;25.80;99.90
7972;DHT22;4031;49.758;6.120;2022-07-17T06:54:35;26.30;99.90
7972;DHT22;4031;49.758;6.120;2022-07-17T06:57:01;26.80;99.90
7972;DHT22;4031;49.758;6.120;2022-07-17T06:59:27;27.30;99.90
7972;DHT22;4031;49.758;6.120;2022-07-17T07:01:53;28.00;99.90
7972;DHT22;4031;49.758;6.120;2022-07-17T07:04:19;28.60;99.90
7972;DHT22;4031;49.758;6.120;2022-07-17T07:06:45;29.10;94.80
7972;DHT22;4031;49.758;6.120;2022-07-17T07:09:11;29.60;92.50
7972;DHT22;4031;49.758;6.120;2022-07-17T07:11:37;29.50;92.50
7972;DHT22;4031;49.758;6.120;2022-07-17T07:14:04;29.80;91.50
7972;DHT22;4031;49.758;6.120;2022-07-17T07:16:30;30.20;83.20
7972;DHT22;4031;49.758;6.120;2022-07-17T07:18:55;30.50;84.40
7972;DHT22;4031;49.758;6.120;2022-07-17T07:21:21;30.80;75.40
7972;DHT22;4031;49.758;6.120;2022-07-17T07:23:48;31.20;75.50
7972;DHT22;4031;49.758;6.120;2022-07-17T07:26:14;31.20;70.50
7972;DHT22;4031;49.758;6.120;2022-07-17T07:28:41;30.80;63.20
7972;DHT22;4031;49.758;6.120;2022-07-17T07:31:07;30.90;66.80
7972;DHT22;4031;49.758;6.120;2022-07-17T07:33:33;31.60;64.50
7972;DHT22;4031;49.758;6.120;2022-07-17T07:35:59;31.90;62.00
7972;DHT22;4031;49.758;6.120;2022-07-17T07:38:25;32.00;58.80
7972;DHT22;4031;49.758;6.120;2022-07-17T07:40:50;32.00;58.00
7972;DHT22;4031;49.758;6.120;2022-07-17T07:43:16;32.40;58.30
7972;DHT22;4031;49.758;6.120;2022-07-17T07:45:42;32.70;55.60
7972;DHT22;4031;49.758;6.120;2022-07-17T07:48:08;32.70;54.80
7972;DHT22;4031;49.758;6.120;2022-07-17T07:50:35;33.10;52.60
7972;DHT22;4031;49.758;6.120;2022-07-17T07:53:01;33.00;52.60
7972;DHT22;4031;49.758;6.120;2022-07-17T07:55:27;33.00;51.50
7972;DHT22;4031;49.758;6.120;2022-07-17T07:58:07;32.90;50.20
7972;DHT22;4031;49.758;6.120;2022-07-17T08:00:33;33.60;51.20
7972;DHT22;4031;49.758;6.120;2022-07-17T08:02:59;33.50;50.20
7972;DHT22;4031;49.758;6.120;2022-07-17T08:05:25;33.70;47.80
7972;DHT22;4031;49.758;6.120;2022-07-17T08:07:51;34.20;46.00
7972;DHT22;4031;49.758;6.120;2022-07-17T08:10:17;34.40;46.00
7972;DHT22;4031;49.758;6.120;2022-07-17T08:12:43;34.20;44.70
7972;DHT22;4031;49.758;6.120;2022-07-17T08:15:09;33.80;43.50
7972;DHT22;4031;49.758;6.120;2022-07-17T08:17:35;33.90;43.60
7972;DHT22;4031;49.758;6.120;2022-07-17T08:20:00;34.00;42.90
7972;DHT22;4031;49.758;6.120;2022-07-17T08:22:27;34.30;41.80
7972;DHT22;4031;49.758;6.120;2022-07-17T08:24:52;34.60;42.70
7972;DHT22;4031;49.758;6.120;2022-07-17T08:27:18;34.70;41.20
7972;DHT22;4031;49.758;6.120;2022-07-17T08:29:44;34.70;41.80
7972;DHT22;4031;49.758;6.120;2022-07-17T08:32:09;34.90;41.30
7972;DHT22;4031;49.758;6.120;2022-07-17T08:34:35;35.00;40.10
7972;DHT22;4031;49.758;6.120;2022-07-17T08:37:01;35.50;40.30
7972;DHT22;4031;49.758;6.120;2022-07-17T08:39:27;35.30;39.40
7972;DHT22;4031;49.758;6.120;2022-07-17T08:41:52;34.90;38.80
7972;DHT22;4031;49.758;6.120;2022-07-17T08:44:18;35.20;38.80
7972;DHT22;4031;49.758;6.120;2022-07-17T08:46:44;35.40;38.80
7972;DHT22;4031;49.758;6.120;2022-07-17T08:49:11;35.30;36.40
7972;DHT22;4031;49.758;6.120;2022-07-17T08:51:39;35.30;37.40
7972;DHT22;4031;49.758;6.120;2022-07-17T08:54:04;35.80;36.20
7972;DHT22;4031;49.758;6.120;2022-07-17T08:56:30;36.20;36.40
7972;DHT22;4031;49.758;6.120;2022-07-17T08:58:56;36.40;34.60
7972;DHT22;4031;49.758;6.120;2022-07-17T09:01:22;36.00;35.10
7972;DHT22;4031;49.758;6.120;2022-07-17T09:04:00;36.00;36.40
7972;DHT22;4031;49.758;6.120;2022-07-17T09:06:32;35.60;34.80
7972;DHT22;4031;49.758;6.120;2022-07-17T09:09:04;35.50;33.60
7972;DHT22;4031;49.758;6.120;2022-07-17T09:11:51;35.20;34.80
7972;DHT22;4031;49.758;6.120;2022-07-17T09:14:19;35.40;33.70
7972;DHT22;4031;49.758;6.120;2022-07-17T09:24:40;36.40;32.90
7972;DHT22;4031;49.758;6.120;2022-07-17T09:27:07;35.90;32.10
7972;DHT22;4031;49.758;6.120;2022-07-17T09:29:33;35.80;31.30
7972;DHT22;4031;49.758;6.120;2022-07-17T09:31:59;35.40;31.10
7972;DHT22;4031;49.758;6.120;2022-07-17T09:34:25;35.40;30.20
7972;DHT22;4031;49.758;6.120;2022-07-17T09:37:01;35.30;30.70
7972;DHT22;4031;49.758;6.120;2022-07-17T09:39:37;35.60;30.70
7972;DHT22;4031;49.758;6.120;2022-07-17T09:42:04;36.20;31.20
7972;DHT22;4031;49.758;6.120;2022-07-17T09:44:30;35.80;28.90
7972;DHT22;4031;49.758;6.120;2022-07-17T09:46:56;35.70;28.90
7972;DHT22;4031;49.758;6.120;2022-07-17T09:49:26;35.00;28.40
7972;DHT22;4031;49.758;6.120;2022-07-17T09:51:53;34.70;28.60
7972;DHT22;4031;49.758;6.120;2022-07-17T09:54:23;34.80;27.80
7972;DHT22;4031;49.758;6.120;2022-07-17T09:56:58;34.50;28.10
7972;DHT22;4031;49.758;6.120;2022-07-17T09:59:25;35.20;27.80
7972;DHT22;4031;49.758;6.120;2022-07-17T10:01:54;35.30;27.20
7972;DHT22;4031;49.758;6.120;2022-07-17T10:04:20;35.00;28.10
7972;DHT22;4031;49.758;6.120;2022-07-17T10:06:46;35.50;28.20
7972;DHT22;4031;49.758;6.120;2022-07-17T10:09:12;35.80;28.00
7972;DHT22;4031;49.758;6.120;2022-07-17T10:11:40;36.50;27.80
7972;DHT22;4031;49.758;6.120;2022-07-17T10:14:11;36.60;28.90
7972;DHT22;4031;49.758;6.120;2022-07-17T10:16:38;36.10;29.50
7972;DHT22;4031;49.758;6.120;2022-07-17T10:19:22;36.10;29.80
7972;DHT22;4031;49.758;6.120;2022-07-17T10:21:58;35.70;29.20
7972;DHT22;4031;49.758;6.120;2022-07-17T10:24:26;35.60;29.90
7972;DHT22;4031;49.758;6.120;2022-07-17T10:26:53;35.60;28.70
7972;DHT22;4031;49.758;6.120;2022-07-17T10:29:25;35.90;28.80
7972;DHT22;4031;49.758;6.120;2022-07-17T10:32:22;36.10;29.90
7972;DHT22;4031;49.758;6.120;2022-07-17T10:34:53;36.10;30.20
7972;DHT22;4031;49.758;6.120;2022-07-17T10:37:30;36.00;29.90
7972;DHT22;4031;49.758;6.120;2022-07-17T10:40:05;36.00;28.60
7972;DHT22;4031;49.758;6.120;2022-07-17T10:45:40;36.00;28.80
7972;DHT22;4031;49.758;6.120;2022-07-17T10:48:12;36.50;28.50
7972;DHT22;4031;49.758;6.120;2022-07-17T10:50:48;36.00;28.30
7972;DHT22;4031;49.758;6.120;2022-07-17T10:53:22;36.00;29.00
7972;DHT22;4031;49.758;6.120;2022-07-17T10:55:58;35.70;29.90
7972;DHT22;4031;49.758;6.120;2022-07-17T10:58:38;35.30;28.60
7972;DHT22;4031;49.758;6.120;2022-07-17T11:03:53;35.30;29.50
7972;DHT22;4031;49.758;6.120;2022-07-17T11:06:22;35.20;29.40
7972;DHT22;4031;49.758;6.120;2022-07-17T11:09:11;35.20;29.90
7972;DHT22;4031;49.758;6.120;2022-07-17T11:11:48;35.30;29.90
7972;DHT22;4031;49.758;6.120;2022-07-17T11:17:00;35.80;28.70
7972;DHT22;4031;49.758;6.120;2022-07-17T11:19:28;35.60;29.80
7972;DHT22;4031;49.758;6.120;2022-07-17T11:22:01;35.70;28.80
7972;DHT22;4031;49.758;6.120;2022-07-17T11:27:03;35.90;29.90
7972;DHT22;4031;49.758;6.120;2022-07-17T11:29:29;35.90;29.00
7972;DHT22;4031;49.758;6.120;2022-07-17T11:31:56;36.20;28.50
7972;DHT22;4031;49.758;6.120;2022-07-17T11:34:24;35.80;29.20
7972;DHT22;4031;49.758;6.120;2022-07-17T11:36:50;35.60;29.60
7972;DHT22;4031;49.758;6.120;2022-07-17T11:39:17;35.60;29.90
7972;DHT22;4031;49.758;6.120;2022-07-17T11:41:49;35.30;29.00
7972;DHT22;4031;49.758;6.120;2022-07-17T11:44:20;35.20;28.90
7972;DHT22;4031;49.758;6.120;2022-07-17T11:46:49;34.70;29.10
7972;DHT22;4031;49.758;6.120;2022-07-17T11:49:34;34.70;30.00
7972;DHT22;4031;49.758;6.120;2022-07-17T11:52:12;34.80;29.70
7972;DHT22;4031;49.758;6.120;2022-07-17T11:54:51;34.70;28.80
7972;DHT22;4031;49.758;6.120;2022-07-17T11:57:22;34.70;29.30
7972;DHT22;4031;49.758;6.120;2022-07-17T11:59:51;34.40;29.20
7972;DHT22;4031;49.758;6.120;2022-07-17T12:02:23;34.20;29.30
7972;DHT22;4031;49.758;6.120;2022-07-17T12:04:57;34.40;29.70
7972;DHT22;4031;49.758;6.120;2022-07-17T12:07:25;34.70;29.10
7972;DHT22;4031;49.758;6.120;2022-07-17T12:09:53;34.80;28.90
7972;DHT22;4031;49.758;6.120;2022-07-17T12:12:29;34.70;28.70
7972;DHT22;4031;49.758;6.120;2022-07-17T12:14:57;35.20;29.80
7972;DHT22;4031;49.758;6.120;2022-07-17T12:17:25;35.40;28.70
7972;DHT22;4031;49.758;6.120;2022-07-17T12:20:06;35.60;29.10
7972;DHT22;4031;49.758;6.120;2022-07-17T12:22:49;35.40;27.40
7972;DHT22;4031;49.758;6.120;2022-07-17T12:25:25;35.50;28.10
7972;DHT22;4031;49.758;6.120;2022-07-17T12:27:52;35.30;27.80
7972;DHT22;4031;49.758;6.120;2022-07-17T12:30:19;35.20;28.20
7972;DHT22;4031;49.758;6.120;2022-07-17T12:32:45;35.20;26.60
7972;DHT22;4031;49.758;6.120;2022-07-17T12:35:13;35.30;26.90
7972;DHT22;4031;49.758;6.120;2022-07-17T12:37:40;35.70;26.70
7972;DHT22;4031;49.758;6.120;2022-07-17T12:40:06;35.80;26.80
7972;DHT22;4031;49.758;6.120;2022-07-17T12:42:33;35.60;26.50
7972;DHT22;4031;49.758;6.120;2022-07-17T12:44:59;35.40;25.30
7972;DHT22;4031;49.758;6.120;2022-07-17T12:47:24;35.50;26.60
7972;DHT22;4031;49.758;6.120;2022-07-17T12:49:50;35.90;25.90
7972;DHT22;4031;49.758;6.120;2022-07-17T12:52:16;36.20;26.10
7972;DHT22;4031;49.758;6.120;2022-07-17T12:54:42;36.60;26.10
7972;DHT22;4031;49.758;6.120;2022-07-17T12:57:07;36.40;25.60
7972;DHT22;4031;49.758;6.120;2022-07-17T12:59:33;36.40;25.60
7972;DHT22;4031;49.758;6.120;2022-07-17T13:01:59;37.00;24.80
7972;DHT22;4031;49.758;6.120;2022-07-17T13:04:25;37.30;24.70
7972;DHT22;4031;49.758;6.120;2022-07-17T13:06:52;37.70;25.20
7972;DHT22;4031;49.758;6.120;2022-07-17T13:09:18;37.50;24.90
7972;DHT22;4031;49.758;6.120;2022-07-17T13:11:44;37.30;26.20
7972;DHT22;4031;49.758;6.120;2022-07-17T13:14:10;37.40;26.10
7972;DHT22;4031;49.758;6.120;2022-07-17T13:16:40;37.30;25.50
7972;DHT22;4031;49.758;6.120;2022-07-17T13:19:07;37.40;26.40
7972;DHT22;4031;49.758;6.120;2022-07-17T13:21:33;37.30;25.50
7972;DHT22;4031;49.758;6.120;2022-07-17T13:24:00;37.10;26.00
7972;DHT22;4031;49.758;6.120;2022-07-17T13:26:26;37.20;26.20
7972;DHT22;4031;49.758;6.120;2022-07-17T13:28:51;37.10;25.40
7972;DHT22;4031;49.758;6.120;2022-07-17T13:31:17;37.10;25.00
7972;DHT22;4031;49.758;6.120;2022-07-17T13:33:43;37.20;26.40
7972;DHT22;4031;49.758;6.120;2022-07-17T13:36:09;37.20;26.30
7972;DHT22;4031;49.758;6.120;2022-07-17T13:38:35;37.20;26.70
7972;DHT22;4031;49.758;6.120;2022-07-17T13:41:01;37.10;25.10
7972;DHT22;4031;49.758;6.120;2022-07-17T13:43:26;37.00;25.30
7972;DHT22;4031;49.758;6.120;2022-07-17T13:45:52;37.00;25.90
7972;DHT22;4031;49.758;6.120;2022-07-17T13:48:18;37.00;24.80
7972;DHT22;4031;49.758;6.120;2022-07-17T13:50:44;37.20;24.90
7972;DHT22;4031;49.758;6.120;2022-07-17T13:53:10;37.30;24.60
7972;DHT22;4031;49.758;6.120;2022-07-17T13:55:37;37.50;25.00
7972;DHT22;4031;49.758;6.120;2022-07-17T13:58:04;37.50;25.00
7972;DHT22;4031;49.758;6.120;2022-07-17T14:00:30;37.50;24.80
7972;DHT22;4031;49.758;6.120;2022-07-17T14:02:56;37.30;25.00
7972;DHT22;4031;49.758;6.120;2022-07-17T14:05:22;37.00;24.90
7972;DHT22;4031;49.758;6.120;2022-07-17T14:07:48;37.10;26.10
7972;DHT22;4031;49.758;6.120;2022-07-17T14:10:14;37.30;25.80
7972;DHT22;4031;49.758;6.120;2022-07-17T14:12:40;37.60;25.20
7972;DHT22;4031;49.758;6.120;2022-07-17T14:15:06;37.90;26.10
7972;DHT22;4031;49.758;6.120;2022-07-17T14:17:36;38.20;24.40
7972;DHT22;4031;49.758;6.120;2022-07-17T14:20:03;38.30;24.30
7972;DHT22;4031;49.758;6.120;2022-07-17T14:22:29;38.70;25.00
7972;DHT22;4031;49.758;6.120;2022-07-17T14:24:55;38.70;24.00
7972;DHT22;4031;49.758;6.120;2022-07-17T14:27:21;38.70;23.50
7972;DHT22;4031;49.758;6.120;2022-07-17T14:29:48;38.50;25.00
7972;DHT22;4031;49.758;6.120;2022-07-17T14:32:14;38.90;24.80
7972;DHT22;4031;49.758;6.120;2022-07-17T14:34:40;38.80;24.90
7972;DHT22;4031;49.758;6.120;2022-07-17T14:37:06;38.50;25.00
7972;DHT22;4031;49.758;6.120;2022-07-17T14:39:33;38.10;24.50
7972;DHT22;4031;49.758;6.120;2022-07-17T14:42:00;37.90;24.60
7972;DHT22;4031;49.758;6.120;2022-07-17T14:44:26;37.90;25.30
7972;DHT22;4031;49.758;6.120;2022-07-17T14:46:53;37.60;25.40
7972;DHT22;4031;49.758;6.120;2022-07-17T14:49:19;37.60;24.90
7972;DHT22;4031;49.758;6.120;2022-07-17T14:51:44;37.80;25.50
7972;DHT22;4031;49.758;6.120;2022-07-17T14:54:10;38.00;25.20
7972;DHT22;4031;49.758;6.120;2022-07-17T14:56:36;37.60;24.70
7972;DHT22;4031;49.758;6.120;2022-07-17T14:59:02;37.70;25.20
7972;DHT22;4031;49.758;6.120;2022-07-17T15:01:28;38.10;24.40
7972;DHT22;4031;49.758;6.120;2022-07-17T15:03:53;38.20;25.80
7972;DHT22;4031;49.758;6.120;2022-07-17T15:06:19;37.90;24.80
7972;DHT22;4031;49.758;6.120;2022-07-17T15:08:45;37.70;25.40
7972;DHT22;4031;49.758;6.120;2022-07-17T15:11:11;37.30;25.10
7972;DHT22;4031;49.758;6.120;2022-07-17T15:13:37;37.20;25.20
7972;DHT22;4031;49.758;6.120;2022-07-17T15:16:03;37.20;25.30
7972;DHT22;4031;49.758;6.120;2022-07-17T15:18:29;37.10;24.90
7972;DHT22;4031;49.758;6.120;2022-07-17T15:20:55;37.00;25.70
7972;DHT22;4031;49.758;6.120;2022-07-17T15:23:21;36.70;25.70
7972;DHT22;4031;49.758;6.120;2022-07-17T15:25:47;36.30;25.90
7972;DHT22;4031;49.758;6.120;2022-07-17T15:28:12;36.10;26.00
7972;DHT22;4031;49.758;6.120;2022-07-17T15:30:38;36.00;26.80
7972;DHT22;4031;49.758;6.120;2022-07-17T15:33:04;35.80;25.70
7972;DHT22;4031;49.758;6.120;2022-07-17T15:35:30;35.60;26.20
7972;DHT22;4031;49.758;6.120;2022-07-17T15:37:55;35.40;26.40
7972;DHT22;4031;49.758;6.120;2022-07-17T15:40:23;35.30;26.10
7972;DHT22;4031;49.758;6.120;2022-07-17T15:42:50;35.20;26.50
7972;DHT22;4031;49.758;6.120;2022-07-17T15:45:17;35.00;26.60
7972;DHT22;4031;49.758;6.120;2022-07-17T15:47:45;34.70;26.50
7972;DHT22;4031;49.758;6.120;2022-07-17T15:50:14;34.60;26.60
7972;DHT22;4031;49.758;6.120;2022-07-17T15:52:41;34.40;27.00
7972;DHT22;4031;49.758;6.120;2022-07-17T15:55:07;34.30;26.30
7972;DHT22;4031;49.758;6.120;2022-07-17T15:57:33;34.20;25.90
7972;DHT22;4031;49.758;6.120;2022-07-17T15:59:59;34.20;26.60
7972;DHT22;4031;49.758;6.120;2022-07-17T16:02:25;34.30;25.80
7972;DHT22;4031;49.758;6.120;2022-07-17T16:04:51;34.30;28.20
7972;DHT22;4031;49.758;6.120;2022-07-17T16:07:17;34.40;28.60
7972;DHT22;4031;49.758;6.120;2022-07-17T16:09:43;34.40;26.90
7972;DHT22;4031;49.758;6.120;2022-07-17T16:12:08;34.30;26.10
7972;DHT22;4031;49.758;6.120;2022-07-17T16:14:34;34.40;26.70
7972;DHT22;4031;49.758;6.120;2022-07-17T16:17:00;34.50;26.70
7972;DHT22;4031;49.758;6.120;2022-07-17T16:19:25;34.70;26.60
7972;DHT22;4031;49.758;6.120;2022-07-17T16:21:51;34.70;27.00